River & Lake Conditions

Stages:
  • Latest Observation

    Action Stage: 12.06 ft3.7 m

    Flow: 165 kcfs
    Impacts: Above 8.7 to 9.2 feet, the Corps will raise the gates out of the water, allowing for open river conditions. This corresponds to a discharge of approximately 110,000 cfs.
  • Stages

Stage Date Flow
9.10 ft2.77 mForecast 07/31/2014 07:00 am 120.000 kcfs
9.20 ft2.80 mForecast 07/31/2014 01:00 am 122.000 kcfs
9.20 ft2.80 mForecast 07/30/2014 07:00 pm 122.000 kcfs
9.30 ft2.83 mForecast 07/30/2014 01:00 pm 123.000 kcfs
9.40 ft2.87 mForecast 07/30/2014 07:00 am 125.000 kcfs
9.50 ft2.90 mForecast 07/30/2014 01:00 am 126.000 kcfs
9.60 ft2.93 mForecast 07/29/2014 07:00 pm 128.000 kcfs
9.70 ft2.96 mForecast 07/29/2014 01:00 pm 129.000 kcfs
9.80 ft2.99 mForecast 07/29/2014 07:00 am 131.000 kcfs
9.90 ft3.02 mForecast 07/29/2014 01:00 am 133.000 kcfs
10.00 ft3.05 mForecast 07/28/2014 07:00 pm 134.000 kcfs
10.10 ft3.08 mForecast 07/28/2014 01:00 pm 136.000 kcfs
10.20 ft3.11 mForecast 07/28/2014 07:00 am 137.000 kcfs
10.30 ft3.14 mForecast 07/28/2014 01:00 am 139.000 kcfs
10.30 ft3.14 mForecast 07/27/2014 07:00 pm 139.000 kcfs
10.40 ft3.17 mForecast 07/27/2014 01:00 pm 140.000 kcfs
10.50 ft3.20 mForecast 07/27/2014 07:00 am 142.000 kcfs
10.60 ft3.23 mForecast 07/27/2014 01:00 am 143.000 kcfs
10.70 ft3.26 mForecast 07/26/2014 07:00 pm 145.000 kcfs
10.80 ft3.29 mForecast 07/26/2014 01:00 pm 146.000 kcfs
10.90 ft3.32 mForecast 07/26/2014 07:00 am 148.000 kcfs
11.00 ft3.35 mForecast 07/26/2014 01:00 am 149.000 kcfs
11.10 ft3.38 mForecast 07/25/2014 07:00 pm 151.000 kcfs
11.20 ft3.41 mForecast 07/25/2014 01:00 pm 152.000 kcfs
11.30 ft3.44 mForecast 07/25/2014 07:00 am 154.000 kcfs
11.40 ft3.47 mForecast 07/25/2014 01:00 am 155.000 kcfs
11.50 ft3.51 mForecast 07/24/2014 07:00 pm 157.000 kcfs
11.70 ft3.57 mForecast 07/24/2014 01:00 pm 160.000 kcfs
11.80 ft3.60 mForecast 07/24/2014 07:00 am 162.000 kcfs
11.90 ft3.63 mForecast 07/24/2014 01:00 am 163.000 kcfs
12.00 ft3.66 mForecast 07/23/2014 07:00 pm 165.000 kcfs
12.06 ft3.66 m 07/23/2014 02:00 pm 165.000 kcfs
12.13 ft3.66 m 07/23/2014 12:00 pm 167.000 kcfs
12.15 ft3.66 m 07/23/2014 10:00 am 167.000 kcfs
12.17 ft3.66 m 07/23/2014 08:00 am 167.000 kcfs
12.21 ft3.66 m 07/23/2014 06:00 am 168.000 kcfs
12.23 ft3.66 m 07/23/2014 04:00 am 168.000 kcfs
12.25 ft3.66 m 07/23/2014 02:00 am 168.000 kcfs
12.26 ft3.66 m 07/23/2014 12:00 am 168.000 kcfs
12.28 ft3.66 m 07/22/2014 10:00 pm 169.000 kcfs
12.29 ft3.66 m 07/22/2014 08:00 pm 169.000 kcfs
12.33 ft3.66 m 07/22/2014 06:00 pm 170.000 kcfs
12.40 ft3.66 m 07/22/2014 04:00 pm 171.000 kcfs
12.50 ft3.66 m 07/22/2014 02:00 pm 172.000 kcfs
12.55 ft3.66 m 07/22/2014 12:00 pm 173.000 kcfs
12.66 ft3.66 m 07/22/2014 10:00 am 175.000 kcfs
12.74 ft3.66 m 07/22/2014 08:00 am 176.000 kcfs
12.84 ft3.66 m 07/22/2014 06:00 am 177.000 kcfs
12.92 ft3.66 m 07/22/2014 04:00 am 178.000 kcfs
12.99 ft3.66 m 07/22/2014 02:00 am 180.000 kcfs
13.10 ft3.66 m 07/22/2014 12:00 am 181.000 kcfs
13.11 ft3.66 m 07/21/2014 10:00 pm 181.000 kcfs
13.25 ft3.66 m 07/21/2014 08:00 pm 184.000 kcfs
13.31 ft3.66 m 07/21/2014 06:00 pm 184.000 kcfs
13.37 ft3.66 m 07/21/2014 04:00 pm 185.000 kcfs
13.41 ft3.66 m 07/21/2014 02:00 pm 186.000 kcfs
13.49 ft3.66 m 07/21/2014 12:00 pm 187.000 kcfs
13.54 ft3.66 m 07/21/2014 10:00 am 188.000 kcfs
13.61 ft3.66 m 07/21/2014 08:00 am 189.000 kcfs
13.72 ft3.66 m 07/21/2014 06:00 am 191.000 kcfs
13.78 ft3.66 m 07/21/2014 04:00 am 192.000 kcfs
13.89 ft3.66 m 07/21/2014 02:00 am 193.000 kcfs